createdAt,value
2023-03-18T00:04:26.106Z,101070.19
2023-03-18T00:09:47.929Z,101077.00
2023-03-18T00:15:12.719Z,101071.84
2023-03-18T00:20:34.607Z,101048.59
2023-03-18T00:25:58.015Z,101047.78
2023-03-18T00:31:20.019Z,101064.97
2023-03-18T00:36:41.872Z,101038.47
2023-03-18T00:42:03.906Z,101040.28
2023-03-18T00:47:25.811Z,101045.34
2023-03-18T00:52:47.626Z,101017.97
2023-03-18T00:58:11.048Z,101016.31
2023-03-18T01:03:33.544Z,101037.63
2023-03-18T01:08:57.053Z,101031.59
2023-03-18T01:14:19.917Z,101012.81
2023-03-18T01:19:42.050Z,101011.03
2023-03-18T01:25:04.187Z,100997.47
2023-03-18T01:30:26.112Z,100995.75
2023-03-18T01:35:54.467Z,100993.97
2023-03-18T01:41:16.327Z,100995.75
2023-03-18T01:46:43.799Z,100995.66
2023-03-18T01:52:09.679Z,100989.72
2023-03-18T01:57:33.571Z,100990.50
2023-03-18T02:02:55.624Z,100998.22
2023-03-18T02:08:17.932Z,100987.94
2023-03-18T02:13:41.843Z,100989.69
2023-03-18T02:19:27.489Z,100983.75
2023-03-18T02:24:59.292Z,100991.31
2023-03-18T02:30:26.174Z,100981.09
2023-03-18T02:36:01.013Z,100975.06
2023-03-18T02:41:26.644Z,100975.06
2023-03-18T02:47:06.077Z,100975.84
2023-03-18T02:52:27.926Z,100954.56
2023-03-18T02:57:49.868Z,100988.69
2023-03-18T03:03:11.805Z,100959.81
2023-03-18T03:08:33.682Z,100961.50
2023-03-18T03:13:55.594Z,100937.56
2023-03-18T03:19:18.050Z,100945.22
2023-03-18T03:24:40.025Z,100964.00
2023-03-18T03:30:02.104Z,100935.81
2023-03-18T03:35:24.424Z,100955.47
2023-03-18T03:40:47.009Z,100948.69
2023-03-18T03:46:09.866Z,100952.09
2023-03-18T03:51:31.698Z,100956.28
2023-03-18T03:56:53.915Z,100943.53
2023-03-18T04:02:15.918Z,100947.00
2023-03-18T04:07:38.497Z,100957.09
2023-03-18T04:13:00.317Z,100964.78
2023-03-18T04:18:22.295Z,100962.28
2023-03-18T04:23:44.135Z,100958.00
2023-03-18T04:29:06.001Z,100962.97
2023-03-18T04:34:27.894Z,100975.81
2023-03-18T04:39:50.154Z,100974.09
2023-03-18T04:45:11.995Z,100963.00
2023-03-18T04:50:34.071Z,100982.69
2023-03-18T04:55:56.010Z,100968.22
2023-03-18T05:01:18.002Z,100970.06
2023-03-18T05:06:39.913Z,100986.53
2023-03-18T05:12:02.606Z,100955.06
2023-03-18T05:17:24.560Z,100956.41
2023-03-18T05:22:46.369Z,100948.81
2023-03-18T05:28:11.141Z,100954.34
2023-03-18T05:33:33.373Z,100955.97
2023-03-18T05:38:55.477Z,100946.59
2023-03-18T05:44:17.314Z,100939.63
2023-03-18T05:49:39.260Z,100935.03
2023-03-18T05:55:01.128Z,100943.69
2023-03-18T06:00:23.573Z,100919.75
2023-03-18T06:05:45.394Z,100925.00
2023-03-18T06:11:07.260Z,100943.91
2023-03-18T06:16:29.172Z,100929.03
2023-03-18T06:21:51.124Z,100927.16
2023-03-18T06:27:12.961Z,100933.56
2023-03-18T06:32:35.665Z,100913.94
2023-03-18T06:37:57.756Z,100904.75
2023-03-18T06:43:19.601Z,100922.63
2023-03-18T06:48:41.441Z,100931.66
2023-03-18T06:54:03.745Z,100904.78
2023-03-18T06:59:25.558Z,100922.72
2023-03-18T07:04:47.415Z,100931.84
2023-03-18T07:10:16.249Z,100931.13
2023-03-18T07:15:38.148Z,100922.03
2023-03-18T07:20:59.987Z,100931.34
2023-03-18T07:26:22.244Z,100943.19
2023-03-18T07:31:44.438Z,100927.75
2023-03-18T07:37:06.391Z,100933.56
2023-03-18T07:42:28.245Z,100940.00
2023-03-18T07:47:50.121Z,100933.13
2023-03-18T07:53:12.068Z,100922.47
2023-03-18T07:58:34.461Z,100932.25
2023-03-18T08:03:56.361Z,100939.56
2023-03-18T08:09:18.353Z,100930.31
2023-03-18T08:14:40.222Z,100937.69
2023-03-18T08:20:02.418Z,100928.75
2023-03-18T08:25:24.382Z,100929.84
2023-03-18T08:30:46.359Z,100926.03
2023-03-18T08:36:08.813Z,100916.00
2023-03-18T08:41:31.243Z,100918.72
2023-03-18T08:46:53.280Z,100903.91
2023-03-18T08:52:15.266Z,100918.22
2023-03-18T08:57:37.131Z,100897.78
2023-03-18T09:02:59.098Z,100880.66
2023-03-18T09:08:21.677Z,100895.47
2023-03-18T09:13:43.700Z,100901.00
2023-03-18T09:19:06.299Z,100890.97
2023-03-18T09:24:28.172Z,100888.50
2023-03-18T09:29:50.050Z,100885.16
2023-03-18T09:35:13.313Z,100880.06
2023-03-18T09:40:40.224Z,100860.66
2023-03-18T09:46:02.138Z,100873.19
2023-03-18T09:51:39.727Z,100878.81
2023-03-18T09:57:03.537Z,100878.09
2023-03-18T10:02:37.021Z,100876.59
2023-03-18T10:08:07.066Z,100867.94
2023-03-18T10:13:35.794Z,100849.06
2023-03-18T10:18:57.811Z,100852.28
2023-03-18T10:24:50.358Z,100848.31
2023-03-18T10:30:39.165Z,100860.94
2023-03-18T10:36:12.274Z,100859.53
2023-03-18T10:41:37.618Z,100844.00
2023-03-18T10:47:08.249Z,100847.97
2023-03-18T10:52:45.475Z,100837.53
2023-03-18T10:58:15.904Z,100825.94
2023-03-18T11:04:02.097Z,100835.34
2023-03-18T11:09:35.470Z,100823.53
2023-03-18T11:14:57.331Z,100807.91
2023-03-18T11:20:44.555Z,100813.53
2023-03-18T11:26:08.434Z,100816.28
2023-03-18T11:31:30.311Z,100782.97
2023-03-18T11:36:54.214Z,100777.81
2023-03-18T11:42:21.476Z,100786.25
2023-03-18T11:47:45.887Z,100773.53
2023-03-18T11:53:28.013Z,100774.47
2023-03-18T11:59:08.256Z,100781.78
2023-03-18T12:04:58.116Z,100767.41
2023-03-18T12:10:46.735Z,100757.19
2023-03-18T12:16:47.033Z,100781.53
2023-03-18T12:22:08.831Z,100776.75
2023-03-18T12:27:49.076Z,100771.06
2023-03-18T12:33:41.956Z,100771.97
2023-03-18T12:39:21.496Z,100765.66
2023-03-18T12:44:43.310Z,100759.53
2023-03-18T12:50:07.616Z,100745.66
2023-03-18T12:55:51.847Z,100743.72
2023-03-18T13:01:34.523Z,100747.53
2023-03-18T13:07:05.138Z,100738.31
2023-03-18T13:12:32.588Z,100732.25
2023-03-18T13:18:00.033Z,100719.59
2023-03-18T13:23:56.013Z,100728.28
2023-03-18T13:29:27.003Z,100715.22
2023-03-18T13:35:13.316Z,100710.09
2023-03-18T13:40:37.995Z,100727.38
2023-03-18T13:46:01.248Z,100687.19
2023-03-18T13:51:23.073Z,100698.25
2023-03-18T13:56:51.462Z,100688.94
2023-03-18T14:02:31.753Z,100694.50
2023-03-18T14:07:55.438Z,100684.38
2023-03-18T14:13:27.002Z,100682.22
2023-03-18T14:19:18.222Z,100684.31
2023-03-18T14:24:40.082Z,100678.94
2023-03-18T14:30:30.744Z,100667.66
2023-03-18T14:36:10.290Z,100676.75
2023-03-18T14:41:36.884Z,100669.53
2023-03-18T14:47:03.592Z,100661.53
2023-03-18T14:52:39.620Z,100659.13
2023-03-18T14:58:01.911Z,100655.38
2023-03-18T15:03:31.187Z,100661.66
2023-03-18T15:08:57.958Z,100661.25
2023-03-18T15:14:24.776Z,100659.63
2023-03-18T15:19:47.119Z,100655.91
2023-03-18T15:25:18.560Z,100644.84
2023-03-18T15:30:40.453Z,100649.25
2023-03-18T15:36:13.464Z,100653.69
2023-03-18T15:41:35.466Z,100662.66
2023-03-18T15:47:13.622Z,100656.06
2023-03-18T15:52:40.564Z,100646.59
2023-03-18T15:58:04.830Z,100665.88
2023-03-18T16:03:28.972Z,100657.22
2023-03-18T16:08:51.033Z,100654.94
2023-03-18T16:14:16.228Z,100666.09
2023-03-18T16:19:38.046Z,100661.94
2023-03-18T16:24:59.861Z,100671.72
2023-03-18T16:30:23.159Z,100667.78
2023-03-18T16:35:50.422Z,100680.69
2023-03-18T16:41:12.217Z,100679.16
2023-03-18T16:46:34.076Z,100677.78
2023-03-18T16:51:55.898Z,100688.94
2023-03-18T16:57:20.849Z,100689.97
2023-03-18T17:02:42.797Z,100680.91
2023-03-18T17:08:04.812Z,100689.56
2023-03-18T17:13:29.120Z,100695.97
2023-03-18T17:18:50.957Z,100704.69
2023-03-18T17:24:12.799Z,100697.00
2023-03-18T17:29:34.622Z,100709.16
2023-03-18T17:34:56.473Z,100706.59
2023-03-18T17:40:21.127Z,100705.25
2023-03-18T17:45:42.979Z,100721.69
2023-03-18T17:51:08.385Z,100725.09
2023-03-18T17:56:30.333Z,100703.28
2023-03-18T18:01:52.279Z,100718.06
2023-03-18T18:07:19.747Z,100705.56
2023-03-18T18:12:43.925Z,100704.69
2023-03-18T18:18:14.243Z,100712.03
2023-03-18T18:23:37.508Z,100698.28
2023-03-18T18:28:59.397Z,100700.19
2023-03-18T18:34:21.479Z,100691.69
2023-03-18T18:39:43.357Z,100696.47
2023-03-18T18:45:05.728Z,100701.91
2023-03-18T18:50:30.299Z,100699.88
2023-03-18T18:55:53.878Z,100703.59
2023-03-18T19:01:15.756Z,100691.94
2023-03-18T19:06:37.705Z,100710.59
2023-03-18T19:11:59.542Z,100705.69
2023-03-18T19:17:22.746Z,100712.56
2023-03-18T19:22:44.597Z,100713.53
2023-03-18T19:28:06.441Z,100716.78
2023-03-18T19:33:28.311Z,100696.47
2023-03-18T19:38:51.112Z,100704.97
2023-03-18T19:44:24.694Z,100711.84
2023-03-18T19:49:46.600Z,100712.91
2023-03-18T19:55:15.611Z,100708.97
2023-03-18T20:00:37.431Z,100704.69
2023-03-18T20:05:59.281Z,100712.25
2023-03-18T20:11:21.147Z,100706.31
2023-03-18T20:16:43.045Z,100703.06
2023-03-18T20:22:04.933Z,100712.47
2023-03-18T20:27:26.795Z,100691.97
2023-03-18T20:32:49.028Z,100695.47
2023-03-18T20:38:31.726Z,100704.03
2023-03-18T20:43:53.644Z,100701.63
2023-03-18T20:49:15.485Z,100690.69
2023-03-18T20:54:37.338Z,100706.03
2023-03-18T20:59:59.178Z,100708.66
2023-03-18T21:05:21.442Z,100709.66
2023-03-18T21:10:44.042Z,100707.28
2023-03-18T21:16:10.466Z,100701.25
2023-03-18T21:21:37.846Z,100689.59
2023-03-18T21:27:05.244Z,100686.19
2023-03-18T21:32:31.042Z,100696.47
2023-03-18T21:37:55.846Z,100699.94
2023-03-18T21:43:38.011Z,100704.44
2023-03-18T21:48:59.882Z,100712.13
2023-03-18T21:54:21.766Z,100700.09
2023-03-18T21:59:44.460Z,100701.97
2023-03-18T22:05:18.044Z,100693.44
2023-03-18T22:10:40.145Z,100675.66
2023-03-18T22:16:01.993Z,100696.16
2023-03-18T22:21:27.992Z,100696.16
2023-03-18T22:26:49.859Z,100698.78
2023-03-18T22:32:21.897Z,100697.97
2023-03-18T22:37:44.316Z,100692.16
2023-03-18T22:43:17.011Z,100708.44
2023-03-18T22:48:39.284Z,100690.75
2023-03-18T22:54:01.131Z,100683.03
2023-03-18T22:59:22.985Z,100693.31
2023-03-18T23:04:46.591Z,100704.41
2023-03-18T23:10:09.238Z,100705.31
2023-03-18T23:15:31.134Z,100704.44
2023-03-18T23:20:53.082Z,100696.03
2023-03-18T23:26:16.066Z,100699.53
2023-03-18T23:31:37.983Z,100703.91
2023-03-18T23:36:59.876Z,100706.47
2023-03-18T23:42:21.772Z,100691.97
2023-03-18T23:47:43.645Z,100696.34
2023-03-18T23:53:05.542Z,100672.56
2023-03-18T23:58:27.383Z,100697.31
